createdAt,value
2022-10-14T00:00:26.833Z,100773.17
2022-10-14T00:03:18.689Z,100789.08
2022-10-14T00:05:50.934Z,100784.34
2022-10-14T00:08:23.592Z,100783.89
2022-10-14T00:10:55.920Z,100787.71
2022-10-14T00:13:28.021Z,100782.94
2022-10-14T00:16:00.874Z,100780.60
2022-10-14T00:18:34.185Z,100783.34
2022-10-14T00:21:06.839Z,100778.15
2022-10-14T00:23:41.211Z,100778.75
2022-10-14T00:26:19.791Z,100775.49
2022-10-14T00:28:52.302Z,100774.02
2022-10-14T00:31:25.590Z,100771.52
2022-10-14T00:33:57.978Z,100768.85
2022-10-14T00:36:30.773Z,100772.96
2022-10-14T00:39:03.164Z,100766.07
2022-10-14T00:41:37.406Z,100766.13
2022-10-14T00:44:24.355Z,100764.73
2022-10-14T00:46:57.480Z,100755.08
2022-10-14T00:49:33.362Z,100763.14
2022-10-14T00:52:09.122Z,100760.96
2022-10-14T00:54:46.600Z,100756.55
2022-10-14T00:57:19.561Z,100761.01
2022-10-14T00:59:52.021Z,100763.05
2022-10-14T01:02:24.228Z,100767.52
2022-10-14T01:04:56.625Z,100769.31
2022-10-14T01:07:38.329Z,100768.23
2022-10-14T01:10:17.995Z,100769.76
2022-10-14T01:13:02.916Z,100771.29
2022-10-14T01:15:47.616Z,100764.67
2022-10-14T01:18:37.497Z,100759.58
2022-10-14T01:21:17.834Z,100757.19
2022-10-14T01:24:23.989Z,100750.52
2022-10-14T01:27:14.987Z,100752.83
2022-10-14T01:30:12.217Z,100757.52
2022-10-14T01:33:09.833Z,100755.88
2022-10-14T01:36:00.658Z,100749.47
2022-10-14T01:38:37.333Z,100745.38
2022-10-14T01:41:15.278Z,100748.34
2022-10-14T01:43:51.203Z,100742.96
2022-10-14T01:46:27.253Z,100741.10
2022-10-14T01:49:05.097Z,100741.10
2022-10-14T01:51:45.183Z,100737.30
2022-10-14T01:54:23.477Z,100740.15
2022-10-14T01:56:58.281Z,100740.50
2022-10-14T01:59:30.159Z,100742.89
2022-10-14T02:02:02.290Z,100738.31
2022-10-14T02:04:34.745Z,100738.23
2022-10-14T02:07:12.180Z,100742.33
2022-10-14T02:09:56.332Z,100738.18
2022-10-14T02:12:43.398Z,100736.21
2022-10-14T02:15:25.502Z,100740.35
2022-10-14T02:18:06.050Z,100738.80
2022-10-14T02:20:42.968Z,100739.58
2022-10-14T02:23:20.393Z,100728.33
2022-10-14T02:25:54.597Z,100718.98
2022-10-14T02:28:30.961Z,100713.98
2022-10-14T02:31:07.115Z,100721.90
2022-10-14T02:33:43.941Z,100725.67
2022-10-14T02:36:20.805Z,100725.16
2022-10-14T02:38:54.565Z,100721.09
2022-10-14T02:41:30.198Z,100707.20
2022-10-14T02:44:02.686Z,100707.19
2022-10-14T02:46:35.877Z,100706.94
2022-10-14T02:49:08.147Z,100704.06
2022-10-14T02:51:41.626Z,100704.00
2022-10-14T02:54:16.134Z,100694.10
2022-10-14T02:56:48.863Z,100699.61
2022-10-14T02:59:21.129Z,100709.69
2022-10-14T03:01:53.702Z,100708.63
2022-10-14T03:04:26.794Z,100717.77
2022-10-14T03:06:58.782Z,100702.08
2022-10-14T03:09:31.536Z,100718.73
2022-10-14T03:12:04.292Z,100709.41
2022-10-14T03:14:36.453Z,100703.30
2022-10-14T03:17:09.540Z,100698.70
2022-10-14T03:19:41.607Z,100710.34
2022-10-14T03:22:14.324Z,100695.88
2022-10-14T03:24:47.065Z,100713.70
2022-10-14T03:27:40.582Z,100712.36
2022-10-14T03:30:16.121Z,100717.44
2022-10-14T03:33:00.618Z,100717.75
2022-10-14T03:35:51.859Z,100696.57
2022-10-14T03:38:28.195Z,100716.60
2022-10-14T03:41:02.708Z,100719.33
2022-10-14T03:43:34.653Z,100716.34
2022-10-14T03:46:07.809Z,100715.74
2022-10-14T03:48:40.065Z,100717.73
2022-10-14T03:51:13.305Z,100719.52
2022-10-14T03:53:47.012Z,100700.39
2022-10-14T03:56:20.968Z,100723.41
2022-10-14T03:58:54.059Z,100729.36
2022-10-14T04:01:27.146Z,100729.95
2022-10-14T04:04:13.769Z,100726.85
2022-10-14T04:06:45.978Z,100727.73
2022-10-14T04:09:18.931Z,100726.80
2022-10-14T04:11:51.070Z,100721.36
2022-10-14T04:14:58.369Z,100719.45
2022-10-14T04:17:30.978Z,100717.42
2022-10-14T04:20:07.822Z,100710.64
2022-10-14T04:22:40.731Z,100680.59
2022-10-14T04:25:13.877Z,100704.73
2022-10-14T04:27:48.758Z,100696.27
2022-10-14T04:30:21.832Z,100690.17
2022-10-14T04:32:57.291Z,100686.95
2022-10-14T04:35:29.455Z,100687.23
2022-10-14T04:38:01.727Z,100687.89
2022-10-14T04:40:34.879Z,100687.13
2022-10-14T04:43:07.354Z,100685.80
2022-10-14T04:45:42.767Z,100690.02
2022-10-14T04:48:15.193Z,100689.91
2022-10-14T04:50:51.417Z,100691.52
2022-10-14T04:53:39.875Z,100679.41
2022-10-14T04:56:19.984Z,100679.23
2022-10-14T04:59:03.702Z,100689.19
2022-10-14T05:01:52.305Z,100688.80
2022-10-14T05:04:24.541Z,100687.61
2022-10-14T05:06:57.183Z,100685.42
2022-10-14T05:09:29.767Z,100685.45
2022-10-14T05:12:21.666Z,100690.07
2022-10-14T05:15:10.566Z,100687.92
2022-10-14T05:17:47.495Z,100683.36
2022-10-14T05:20:26.916Z,100682.58
2022-10-14T05:23:22.198Z,100685.08
2022-10-14T05:26:04.603Z,100685.52
2022-10-14T05:28:39.400Z,100687.58
2022-10-14T05:31:12.347Z,100688.39
2022-10-14T05:33:50.941Z,100682.58
2022-10-14T05:36:23.362Z,100676.98
2022-10-14T05:38:58.729Z,100674.15
2022-10-14T05:41:32.828Z,100671.48
2022-10-14T05:44:04.864Z,100669.30
2022-10-14T05:46:39.173Z,100669.14
2022-10-14T05:49:13.344Z,100676.10
2022-10-14T05:51:46.058Z,100686.36
2022-10-14T05:54:22.877Z,100689.34
2022-10-14T05:56:57.729Z,100690.16
2022-10-14T05:59:30.449Z,100696.37
2022-10-14T06:02:02.989Z,100700.02
2022-10-14T06:04:35.095Z,100696.23
2022-10-14T06:07:10.316Z,100693.14
2022-10-14T06:09:47.783Z,100698.06
2022-10-14T06:12:20.424Z,100698.73
2022-10-14T06:14:52.552Z,100694.11
2022-10-14T06:17:24.684Z,100690.45
2022-10-14T06:19:58.409Z,100689.17
2022-10-14T06:22:31.010Z,100688.23
2022-10-14T06:25:04.435Z,100690.27
2022-10-14T06:27:36.706Z,100684.05
2022-10-14T06:30:11.131Z,100686.23
2022-10-14T06:32:43.226Z,100684.81
2022-10-14T06:35:15.297Z,100685.22
2022-10-14T06:37:48.849Z,100688.20
2022-10-14T06:40:21.378Z,100692.81
2022-10-14T06:42:53.743Z,100689.69
2022-10-14T06:45:25.843Z,100680.29
2022-10-14T06:47:57.936Z,100692.98
2022-10-14T06:50:29.939Z,100694.12
2022-10-14T06:53:01.909Z,100691.56
2022-10-14T06:55:34.543Z,100695.88
2022-10-14T06:58:06.589Z,100684.48
2022-10-14T07:00:39.010Z,100691.92
2022-10-14T07:03:10.974Z,100697.08
2022-10-14T07:05:43.005Z,100700.91
2022-10-14T07:08:15.695Z,100707.52
2022-10-14T07:10:49.365Z,100707.93
2022-10-14T07:13:21.534Z,100705.89
2022-10-14T07:15:54.476Z,100704.27
2022-10-14T07:18:26.607Z,100703.10
2022-10-14T07:21:02.401Z,100705.42
2022-10-14T07:23:35.203Z,100704.64
2022-10-14T07:26:07.707Z,100705.24
2022-10-14T07:28:39.860Z,100710.11
2022-10-14T07:31:13.332Z,100705.79
2022-10-14T07:33:45.533Z,100710.77
2022-10-14T07:36:21.642Z,100710.11
2022-10-14T07:38:55.741Z,100709.89
2022-10-14T07:41:28.529Z,100701.45
2022-10-14T07:44:05.992Z,100700.13
2022-10-14T07:46:39.956Z,100712.36
2022-10-14T07:49:15.209Z,100714.01
2022-10-14T07:51:48.075Z,100697.69
2022-10-14T07:54:22.448Z,100716.43
2022-10-14T07:56:55.044Z,100714.75
2022-10-14T07:59:27.285Z,100716.16
2022-10-14T08:01:59.655Z,100714.92
2022-10-14T08:04:31.779Z,100707.30
2022-10-14T08:07:04.804Z,100721.48
2022-10-14T08:09:38.588Z,100719.91
2022-10-14T08:12:11.077Z,100716.65
2022-10-14T08:14:43.048Z,100711.52
2022-10-14T08:17:15.257Z,100694.67
2022-10-14T08:19:47.282Z,100709.66
2022-10-14T08:22:21.014Z,100705.65
2022-10-14T08:24:53.313Z,100713.36
2022-10-14T08:27:26.851Z,100716.88
2022-10-14T08:29:58.872Z,100715.73
2022-10-14T08:32:31.259Z,100716.05
2022-10-14T08:35:03.218Z,100715.89
2022-10-14T08:37:36.451Z,100717.45
2022-10-14T08:40:14.038Z,100714.95
2022-10-14T08:42:55.864Z,100715.02
2022-10-14T08:45:33.917Z,100708.41
2022-10-14T08:48:11.954Z,100705.70
2022-10-14T08:50:48.948Z,100700.54
2022-10-14T08:53:23.863Z,100699.13
2022-10-14T08:56:00.273Z,100702.91
2022-10-14T08:58:38.625Z,100704.98
2022-10-14T09:01:20.310Z,100699.73
2022-10-14T09:03:55.152Z,100700.82
2022-10-14T09:06:29.558Z,100701.52
2022-10-14T09:09:07.613Z,100706.05
2022-10-14T09:11:42.730Z,100705.71
2022-10-14T09:14:20.831Z,100703.99
2022-10-14T09:16:57.940Z,100707.38
2022-10-14T09:19:34.692Z,100710.52
2022-10-14T09:22:14.865Z,100705.35
2022-10-14T09:24:48.563Z,100712.15
2022-10-14T09:27:22.800Z,100708.54
2022-10-14T09:30:00.423Z,100711.42
2022-10-14T09:32:36.909Z,100713.95
2022-10-14T09:35:18.195Z,100712.86
2022-10-14T09:37:50.397Z,100701.46
2022-10-14T09:40:29.995Z,100711.33
2022-10-14T09:43:11.547Z,100708.02
2022-10-14T09:45:53.600Z,100710.10
2022-10-14T09:48:33.807Z,100709.05
2022-10-14T09:51:10.212Z,100707.86
2022-10-14T09:53:47.173Z,100695.90
2022-10-14T09:56:31.471Z,100706.66
2022-10-14T09:59:05.541Z,100705.94
2022-10-14T10:01:42.581Z,100706.08
2022-10-14T10:04:36.087Z,100701.92
2022-10-14T10:07:27.025Z,100702.90
2022-10-14T10:10:01.845Z,100705.14
2022-10-14T10:12:35.665Z,100703.94
2022-10-14T10:15:19.106Z,100702.27
2022-10-14T10:17:52.422Z,100701.77
2022-10-14T10:20:33.372Z,100704.73
2022-10-14T10:23:26.365Z,100697.14
2022-10-14T10:26:17.626Z,100696.81
2022-10-14T10:28:50.709Z,100693.73
2022-10-14T10:31:47.201Z,100693.90
2022-10-14T10:34:44.713Z,100692.86
2022-10-14T10:37:27.250Z,100690.30
2022-10-14T10:40:22.743Z,100690.23
2022-10-14T10:43:09.379Z,100685.74
2022-10-14T10:45:55.041Z,100680.70
2022-10-14T10:48:34.161Z,100678.55
2022-10-14T10:51:10.887Z,100679.27
2022-10-14T10:53:54.154Z,100678.23
2022-10-14T10:56:38.914Z,100670.85
2022-10-14T10:59:50.028Z,100672.55
2022-10-14T11:02:48.016Z,100674.46
2022-10-14T11:05:30.855Z,100668.52
2022-10-14T11:08:35.673Z,100663.97
2022-10-14T11:11:39.769Z,100666.13
2022-10-14T11:14:24.810Z,100663.16
2022-10-14T11:17:06.378Z,100649.29
2022-10-14T11:19:46.189Z,100655.70
2022-10-14T11:22:29.122Z,100651.38
2022-10-14T11:25:15.110Z,100649.13
2022-10-14T11:27:54.413Z,100649.92
2022-10-14T11:30:43.383Z,100645.90
2022-10-14T11:33:29.622Z,100646.79
2022-10-14T11:36:15.629Z,100643.25
2022-10-14T11:39:04.678Z,100647.81
2022-10-14T11:41:52.509Z,100642.61
2022-10-14T11:47:11.804Z,100632.91
2022-10-14T11:49:53.141Z,100640.35
2022-10-14T11:52:29.669Z,100637.77
2022-10-14T11:55:13.667Z,100635.45
2022-10-14T11:57:53.030Z,100639.32
2022-10-14T12:00:29.616Z,100641.16
2022-10-14T12:03:11.528Z,100620.30
2022-10-14T12:05:50.665Z,100636.52
2022-10-14T12:08:30.461Z,100632.83
2022-10-14T12:11:09.420Z,100631.70
2022-10-14T12:13:47.515Z,100622.33
2022-10-14T12:16:22.424Z,100625.44
2022-10-14T12:18:58.068Z,100619.43
2022-10-14T12:21:39.780Z,100617.52
2022-10-14T12:24:15.757Z,100615.25
2022-10-14T12:26:53.882Z,100615.88
2022-10-14T12:29:30.312Z,100617.59
2022-10-14T12:32:20.841Z,100618.54
2022-10-14T12:34:54.944Z,100611.53
2022-10-14T12:37:54.463Z,100610.52
2022-10-14T12:40:33.051Z,100610.73
2022-10-14T12:43:18.433Z,100612.81
2022-10-14T12:46:00.761Z,100611.77
2022-10-14T12:48:36.328Z,100610.16
2022-10-14T12:51:16.228Z,100611.68
2022-10-14T12:53:58.443Z,100612.56
2022-10-14T12:56:39.673Z,100606.76
2022-10-14T12:59:25.589Z,100609.48
2022-10-14T13:02:01.288Z,100608.30
2022-10-14T13:04:35.446Z,100603.80
2022-10-14T13:07:41.573Z,100600.02
2022-10-14T13:10:47.350Z,100596.18
2022-10-14T13:13:52.595Z,100591.41
2022-10-14T13:16:57.310Z,100591.77
2022-10-14T13:19:46.677Z,100590.20
2022-10-14T13:22:42.583Z,100584.42
2022-10-14T13:25:17.653Z,100581.04
2022-10-14T13:27:56.415Z,100583.61
2022-10-14T13:30:38.232Z,100580.15
2022-10-14T13:33:19.608Z,100579.52
2022-10-14T13:36:00.113Z,100575.52
2022-10-14T13:38:34.726Z,100580.17
2022-10-14T13:41:15.591Z,100580.02
2022-10-14T13:43:47.873Z,100579.69
2022-10-14T13:46:25.892Z,100580.04
2022-10-14T13:49:01.163Z,100578.33
2022-10-14T13:51:49.046Z,100574.30
2022-10-14T13:54:23.639Z,100576.70
2022-10-14T14:02:54.565Z,100567.30
2022-10-14T14:05:33.523Z,100557.83
2022-10-14T14:08:38.548Z,100567.59
2022-10-14T14:11:16.053Z,100571.76
2022-10-14T14:14:01.202Z,100574.27
2022-10-14T14:16:38.017Z,100574.89
2022-10-14T14:19:20.940Z,100572.70
2022-10-14T14:22:06.025Z,100575.03
2022-10-14T14:24:38.118Z,100560.55
2022-10-14T14:27:14.948Z,100569.23
2022-10-14T14:29:50.046Z,100571.58
2022-10-14T14:32:25.820Z,100570.13
2022-10-14T14:34:58.142Z,100571.04
2022-10-14T14:40:27.098Z,100567.35
2022-10-14T14:43:02.265Z,100569.60
2022-10-14T14:45:38.563Z,100570.73
2022-10-14T14:48:14.573Z,100565.94
2022-10-14T14:50:48.921Z,100566.33
2022-10-14T14:53:24.005Z,100563.85
2022-10-14T14:56:10.436Z,100563.19
2022-10-14T14:58:52.419Z,100564.71
2022-10-14T15:01:26.776Z,100566.86
2022-10-14T15:04:13.072Z,100565.98
2022-10-14T15:06:53.450Z,100563.59
2022-10-14T15:09:31.974Z,100562.41
2022-10-14T15:12:05.548Z,100565.69
2022-10-14T15:14:46.003Z,100553.20
2022-10-14T15:17:34.206Z,100559.07
2022-10-14T15:20:28.795Z,100547.77
2022-10-14T15:23:00.832Z,100557.44
2022-10-14T15:25:34.403Z,100562.17
2022-10-14T15:28:06.505Z,100557.78
2022-10-14T15:30:55.701Z,100555.94
2022-10-14T15:33:28.330Z,100557.77
2022-10-14T15:36:03.011Z,100556.71
2022-10-14T15:38:35.945Z,100557.54
2022-10-14T15:41:08.190Z,100554.41
2022-10-14T15:43:40.531Z,100556.09
2022-10-14T15:46:32.647Z,100554.66
2022-10-14T15:49:12.957Z,100551.86
2022-10-14T15:51:45.300Z,100551.54
2022-10-14T15:54:19.142Z,100553.06
2022-10-14T15:56:51.907Z,100551.55
2022-10-14T15:59:24.219Z,100553.55
2022-10-14T16:01:56.454Z,100553.48
2022-10-14T16:04:29.506Z,100542.50
2022-10-14T16:07:01.711Z,100536.82
2022-10-14T16:09:33.618Z,100549.72
2022-10-14T16:12:09.652Z,100546.44
2022-10-14T16:14:40.141Z,100535.48
2022-10-14T16:17:12.942Z,100545.33
2022-10-14T16:19:46.543Z,100544.44
2022-10-14T16:22:19.358Z,100544.62
2022-10-14T16:24:51.655Z,100531.14
2022-10-14T16:27:24.743Z,100542.77
2022-10-14T16:29:56.905Z,100523.94
2022-10-14T16:32:31.175Z,100535.95
2022-10-14T16:35:03.654Z,100528.90
2022-10-14T16:37:38.295Z,100525.38
2022-10-14T16:40:13.733Z,100528.52
2022-10-14T16:42:46.064Z,100526.51
2022-10-14T16:45:18.194Z,100524.11
2022-10-14T16:47:50.112Z,100519.45
2022-10-14T16:50:22.658Z,100515.37
2022-10-14T16:53:12.242Z,100511.05
2022-10-14T16:55:44.342Z,100513.04
2022-10-14T16:58:16.704Z,100510.56
2022-10-14T17:00:48.729Z,100511.61
2022-10-14T17:03:20.669Z,100507.52
2022-10-14T17:06:00.699Z,100508.40
2022-10-14T17:08:33.097Z,100510.07
2022-10-14T17:11:04.984Z,100508.38
2022-10-14T17:13:37.141Z,100509.02
2022-10-14T17:16:09.325Z,100509.02
2022-10-14T17:18:41.684Z,100501.81
2022-10-14T17:21:16.844Z,100500.45
2022-10-14T17:23:50.409Z,100497.89
2022-10-14T17:26:22.669Z,100501.72
2022-10-14T17:28:54.609Z,100499.48
2022-10-14T17:31:27.827Z,100500.84
2022-10-14T17:34:01.357Z,100495.24
2022-10-14T17:36:33.469Z,100498.27
2022-10-14T17:39:05.983Z,100504.52
2022-10-14T17:41:37.992Z,100503.09
2022-10-14T17:44:11.023Z,100496.84
2022-10-14T17:46:43.242Z,100495.56
2022-10-14T17:49:15.161Z,100488.99
2022-10-14T17:51:47.325Z,100489.23
2022-10-14T17:54:19.961Z,100487.30
2022-10-14T17:56:51.936Z,100482.98
2022-10-14T17:59:24.674Z,100482.41
2022-10-14T18:02:02.712Z,100476.73
2022-10-14T18:04:35.489Z,100476.55
2022-10-14T18:07:07.379Z,100474.08
2022-10-14T18:09:39.529Z,100476.88
2022-10-14T18:12:11.503Z,100479.84
2022-10-14T18:14:44.142Z,100478.88
2022-10-14T18:17:16.439Z,100478.25
2022-10-14T18:19:52.191Z,100477.76
2022-10-14T18:22:24.671Z,100478.48
2022-10-14T18:24:56.999Z,100479.28
2022-10-14T18:27:28.869Z,100481.77
2022-10-14T18:30:01.017Z,100478.40
2022-10-14T18:32:33.019Z,100475.11
2022-10-14T18:35:06.155Z,100463.27
2022-10-14T18:37:39.120Z,100470.08
2022-10-14T18:40:14.701Z,100471.27
2022-10-14T18:42:46.567Z,100474.31
2022-10-14T18:45:18.880Z,100477.44
2022-10-14T18:47:52.188Z,100477.58
2022-10-14T18:50:24.154Z,100472.29
2022-10-14T18:52:57.172Z,100470.14
2022-10-14T18:55:29.275Z,100471.98
2022-10-14T18:58:01.183Z,100478.30
2022-10-14T19:00:33.698Z,100476.29
2022-10-14T19:03:05.815Z,100474.93
2022-10-14T19:05:39.027Z,100476.52
2022-10-14T19:08:11.427Z,100475.98
2022-10-14T19:10:43.989Z,100473.09
2022-10-14T19:13:15.942Z,100474.60
2022-10-14T19:15:53.923Z,100474.11
2022-10-14T19:18:25.818Z,100472.19
2022-10-14T19:21:03.511Z,100466.17
2022-10-14T19:23:36.677Z,100463.94
2022-10-14T19:26:31.334Z,100460.06
2022-10-14T19:29:07.783Z,100470.86
2022-10-14T19:31:43.791Z,100463.57
2022-10-14T19:34:17.403Z,100459.88
2022-10-14T19:36:49.678Z,100457.94
2022-10-14T19:39:21.652Z,100457.45
2022-10-14T19:41:53.713Z,100453.45
2022-10-14T19:44:25.900Z,100454.95
2022-10-14T19:46:58.665Z,100453.02
2022-10-14T19:49:30.530Z,100452.67
2022-10-14T19:52:02.557Z,100447.25
2022-10-14T19:54:34.740Z,100445.55
2022-10-14T19:57:08.247Z,100445.86
2022-10-14T19:59:40.262Z,100448.48
2022-10-14T20:02:12.858Z,100446.23
2022-10-14T20:04:44.723Z,100420.27
2022-10-14T20:07:17.089Z,100443.43
2022-10-14T20:09:49.293Z,100444.29
2022-10-14T20:12:22.170Z,100444.93
2022-10-14T20:14:55.072Z,100440.13
2022-10-14T20:17:27.701Z,100439.08
2022-10-14T20:19:59.925Z,100442.83
2022-10-14T20:22:32.683Z,100442.89
2022-10-14T20:25:05.142Z,100442.48
2022-10-14T20:27:37.383Z,100439.52
2022-10-14T20:30:13.086Z,100440.08
2022-10-14T20:32:45.228Z,100436.77
2022-10-14T20:35:17.973Z,100439.96
2022-10-14T20:37:50.496Z,100438.19
2022-10-14T20:40:22.731Z,100441.85
2022-10-14T20:42:54.803Z,100441.28
2022-10-14T20:45:26.710Z,100443.25
2022-10-14T20:47:59.040Z,100443.88
2022-10-14T20:50:31.071Z,100442.91
2022-10-14T20:53:05.234Z,100441.85
2022-10-14T20:55:37.415Z,100442.48
2022-10-14T20:58:10.395Z,100429.33
2022-10-14T21:00:42.271Z,100441.18
2022-10-14T21:03:14.381Z,100436.16
2022-10-14T21:05:46.251Z,100440.67
2022-10-14T21:08:18.406Z,100436.10
2022-10-14T21:10:50.399Z,100436.48
2022-10-14T21:13:23.154Z,100432.64
2022-10-14T21:15:55.043Z,100430.36
2022-10-14T21:18:29.937Z,100423.49
2022-10-14T21:21:06.805Z,100414.91
2022-10-14T21:23:39.270Z,100406.67
2022-10-14T21:26:11.907Z,100404.14
2022-10-14T21:28:44.553Z,100396.96
2022-10-14T21:31:19.344Z,100394.11
2022-10-14T21:34:02.546Z,100398.70
2022-10-14T21:36:38.536Z,100395.05
2022-10-14T21:39:12.764Z,100395.23
2022-10-14T21:41:48.919Z,100396.35
2022-10-14T21:44:23.337Z,100393.73
2022-10-14T21:46:56.811Z,100394.93
2022-10-14T21:49:55.674Z,100395.11
2022-10-14T21:52:29.008Z,100394.64
2022-10-14T21:55:00.905Z,100394.33
2022-10-14T21:57:33.842Z,100391.13
2022-10-14T22:00:10.822Z,100386.17
2022-10-14T22:02:43.427Z,100381.89
2022-10-14T22:05:15.888Z,100385.89
2022-10-14T22:07:48.860Z,100376.33
2022-10-14T22:10:41.027Z,100347.71
2022-10-14T22:13:15.255Z,100357.82
2022-10-14T22:15:47.392Z,100375.34
2022-10-14T22:18:19.434Z,100373.82
2022-10-14T22:20:59.901Z,100368.61
2022-10-14T22:23:31.890Z,100364.28
2022-10-14T22:26:05.986Z,100362.91
2022-10-14T22:28:39.134Z,100364.17
2022-10-14T22:31:13.310Z,100366.64
2022-10-14T22:33:46.060Z,100365.84
2022-10-14T22:36:23.550Z,100366.93
2022-10-14T22:38:57.442Z,100362.18
2022-10-14T22:41:34.803Z,100361.13
2022-10-14T22:44:08.471Z,100361.66
2022-10-14T22:46:43.517Z,100358.69
2022-10-14T22:49:15.809Z,100359.70
2022-10-14T22:51:47.800Z,100344.16
2022-10-14T22:54:21.041Z,100360.23
2022-10-14T22:56:54.788Z,100352.87
2022-10-14T22:59:27.633Z,100350.95
2022-10-14T23:02:01.170Z,100345.26
2022-10-14T23:04:33.789Z,100342.70
2022-10-14T23:07:07.696Z,100336.21
2022-10-14T23:09:43.663Z,100326.71
2022-10-14T23:12:16.854Z,100320.78
2022-10-14T23:14:49.130Z,100316.63
2022-10-14T23:17:22.906Z,100295.55
2022-10-14T23:19:54.868Z,100314.89
2022-10-14T23:22:27.090Z,100317.82
2022-10-14T23:24:59.053Z,100316.21
2022-10-14T23:27:32.937Z,100313.56
2022-10-14T23:30:10.827Z,100314.66
2022-10-14T23:32:43.703Z,100303.25
2022-10-14T23:35:15.775Z,100316.94
2022-10-14T23:37:48.890Z,100319.05
2022-10-14T23:40:21.285Z,100319.04
2022-10-14T23:42:53.559Z,100287.79
2022-10-14T23:45:25.425Z,100311.74
2022-10-14T23:48:00.012Z,100304.17
2022-10-14T23:50:31.900Z,100301.94
2022-10-14T23:53:03.778Z,100298.97
2022-10-14T23:55:35.683Z,100298.17
2022-10-14T23:58:07.543Z,100296.15
